Time;durP1;ratioP1;P1;durP2;ratioP2;P2;SDS_P1;SDS_P2;PMS_P1;PMS_P2;Temp;Humidity;BMP_temperature;BMP_pressure;BME280_temperature;BME280_humidity;BME280_pressure;Samples;Min_cycle;Max_cycle;Signal;HPM_P1;HPM_P2
2024/04/06 00:01:21;;;;;;;3.47;1.70;;;15.30;99.90;;;;;;6182738;23;20386;-77
2024/04/06 00:03:48;;;;;;;2.17;1.30;;;15.30;99.90;;;;;;6186237;23;20384;-77
2024/04/06 00:06:13;;;;;;;2.90;1.57;;;15.30;99.90;;;;;;6158450;23;20501;-77
2024/04/06 00:08:39;;;;;;;2.60;1.63;;;15.30;99.90;;;;;;6208448;23;20362;-76
2024/04/06 00:11:06;;;;;;;1.50;1.30;;;15.30;99.90;;;;;;6212272;23;20221;-78
2024/04/06 00:13:32;;;;;;;3.20;1.90;;;15.20;99.90;;;;;;6187371;23;20410;-78
2024/04/06 00:16:02;;;;;;;2.00;1.70;;;15.20;99.90;;;;;;6211875;23;20448;-77
2024/04/06 00:18:29;;;;;;;3.57;1.40;;;15.20;99.90;;;;;;6161933;23;20155;-77
2024/04/06 00:20:55;;;;;;;3.10;1.90;;;15.20;99.90;;;;;;6186853;23;20378;-78
2024/04/06 00:23:22;;;;;;;1.97;1.30;;;15.20;99.90;;;;;;6210275;23;20416;-76
2024/04/06 00:25:48;;;;;;;2.70;1.40;;;15.20;99.90;;;;;;6207561;23;20413;-75
2024/04/06 00:28:14;;;;;;;2.97;1.60;;;15.20;99.90;;;;;;6207582;23;20147;-79
2024/04/06 00:30:40;;;;;;;2.67;1.57;;;15.20;99.90;;;;;;6158490;23;20140;-78
2024/04/06 00:33:05;;;;;;;2.63;1.50;;;15.20;99.90;;;;;;6207012;23;20391;-77
2024/04/06 00:35:31;;;;;;;2.30;1.40;;;15.20;99.90;;;;;;6158940;23;20144;-76
2024/04/06 00:37:58;;;;;;;2.93;1.83;;;15.10;99.90;;;;;;6186185;23;20182;-78
2024/04/06 00:40:25;;;;;;;3.10;2.67;;;15.20;99.90;;;;;;6209684;23;20358;-76
2024/04/06 00:42:51;;;;;;;3.10;2.20;;;15.20;99.90;;;;;;6199944;23;20417;-76
2024/04/06 00:45:17;;;;;;;4.93;2.13;;;15.20;99.90;;;;;;6202936;23;20441;-78
2024/04/06 00:47:43;;;;;;;2.83;1.67;;;15.20;99.90;;;;;;6204163;23;20167;-77
2024/04/06 00:50:10;;;;;;;2.70;1.90;;;15.20;99.90;;;;;;6202310;23;20364;-77
2024/04/06 00:52:35;;;;;;;3.73;1.67;;;15.10;99.90;;;;;;6203184;23;20178;-75
2024/04/06 00:55:03;;;;;;;4.03;2.03;;;15.10;99.90;;;;;;6178181;23;20367;-79
2024/04/06 00:57:29;;;;;;;4.57;2.13;;;15.10;99.90;;;;;;6201416;23;20259;-76
2024/04/06 00:59:55;;;;;;;3.30;1.70;;;15.10;99.90;;;;;;6201549;23;20389;-76
2024/04/06 01:02:21;;;;;;;2.53;1.97;;;15.00;99.90;;;;;;6202838;23;20467;-76
2024/04/06 01:04:47;;;;;;;3.43;1.83;;;15.00;99.90;;;;;;6203510;23;20161;-78
2024/04/06 01:07:12;;;;;;;2.70;2.10;;;15.00;99.90;;;;;;6199132;23;20548;-75
2024/04/06 01:09:38;;;;;;;2.97;1.70;;;14.90;99.90;;;;;;6199960;23;20396;-76
2024/04/06 01:12:04;;;;;;;3.10;1.77;;;14.90;99.90;;;;;;6198787;23;20144;-75
2024/04/06 01:14:30;;;;;;;5.90;2.20;;;14.90;99.90;;;;;;6174515;23;20143;-76
2024/04/06 01:16:55;;;;;;;4.30;1.67;;;14.90;99.90;;;;;;6199321;23;20386;-76
2024/04/06 01:19:21;;;;;;;5.50;1.83;;;14.90;99.90;;;;;;6200434;23;20157;-75
2024/04/06 01:21:47;;;;;;;3.37;1.83;;;14.90;99.90;;;;;;6202955;23;20146;-77
2024/04/06 01:24:32;;;;;;;2.60;1.87;;;14.80;99.90;;;;;;6172551;23;20423;-75
2024/04/06 01:26:59;;;;;;;2.43;1.30;;;14.80;99.90;;;;;;6171850;23;20197;-76
2024/04/06 01:29:26;;;;;;;3.63;1.53;;;14.80;99.90;;;;;;6196925;23;20370;-74
2024/04/06 01:31:53;;;;;;;2.67;1.77;;;14.70;99.90;;;;;;6198585;23;20369;-76
2024/04/06 01:34:19;;;;;;;4.30;1.87;;;14.70;99.90;;;;;;6199533;23;20382;-75
2024/04/06 01:36:45;;;;;;;4.87;1.87;;;14.60;99.90;;;;;;6200411;23;20452;-76
2024/04/06 01:39:14;;;;;;;6.33;1.97;;;14.50;99.90;;;;;;6198827;23;20143;-76
2024/04/06 01:41:42;;;;;;;3.53;2.27;;;14.50;99.90;;;;;;6199784;23;20151;-78
2024/04/06 01:44:07;;;;;;;3.97;2.10;;;14.40;99.90;;;;;;6174150;23;20372;-76
2024/04/06 01:46:34;;;;;;;5.93;2.00;;;14.30;99.90;;;;;;6200188;23;20438;-76
2024/04/06 01:49:00;;;;;;;2.67;1.70;;;14.30;99.90;;;;;;6201001;23;20210;-77
2024/04/06 01:51:26;;;;;;;3.97;2.00;;;14.30;99.90;;;;;;6173183;23;20369;-76
2024/04/06 01:53:51;;;;;;;3.93;1.80;;;14.30;99.90;;;;;;6200209;23;20183;-76
2024/04/06 01:56:17;;;;;;;2.30;1.70;;;14.30;99.90;;;;;;6197172;23;20182;-76
2024/04/06 01:58:44;;;;;;;4.10;1.73;;;14.30;99.90;;;;;;6197211;23;20142;-76
2024/04/06 02:01:09;;;;;;;3.13;1.50;;;14.20;99.90;;;;;;6199347;23;20217;-77
2024/04/06 02:03:35;;;;;;;3.60;1.90;;;14.10;99.90;;;;;;6198662;23;20378;-74
2024/04/06 02:06:02;;;;;;;3.00;1.90;;;14.10;99.90;;;;;;6198968;23;20198;-79
2024/04/06 02:08:27;;;;;;;2.83;1.70;;;14.00;99.90;;;;;;6198614;23;20479;-76
2024/04/06 02:10:53;;;;;;;2.67;1.73;;;14.00;99.90;;;;;;6199618;23;20362;-76
2024/04/06 02:13:19;;;;;;;2.90;1.63;;;14.00;99.90;;;;;;6196647;23;20135;-77
2024/04/06 02:15:44;;;;;;;2.77;1.57;;;14.00;99.90;;;;;;6197121;23;20205;-74
2024/04/06 02:18:12;;;;;;;5.03;2.03;;;13.90;99.90;;;;;;6197499;23;20143;-75
2024/04/06 02:20:42;;;;;;;2.87;1.57;;;13.90;99.90;;;;;;6171971;23;20154;-76
2024/04/06 02:23:08;;;;;;;3.30;1.67;;;13.90;99.90;;;;;;6172903;23;20394;-74
2024/04/06 02:25:34;;;;;;;2.80;1.70;;;13.80;99.90;;;;;;6197254;23;20444;-74
2024/04/06 02:28:00;;;;;;;3.60;1.83;;;13.80;99.90;;;;;;6194182;23;20174;-75
2024/04/06 02:30:26;;;;;;;3.07;1.63;;;13.70;99.90;;;;;;6195273;23;20381;-75
2024/04/06 02:32:52;;;;;;;2.90;1.87;;;13.70;99.90;;;;;;6198664;23;20361;-76
2024/04/06 02:35:18;;;;;;;2.20;1.53;;;13.70;99.90;;;;;;6196841;23;20624;-75
2024/04/06 02:37:44;;;;;;;2.53;1.63;;;13.70;99.90;;;;;;6173463;23;20473;-77
2024/04/06 02:40:11;;;;;;;2.07;1.60;;;13.70;99.90;;;;;;6196786;23;20366;-76
2024/04/06 02:42:37;;;;;;;1.87;1.37;;;13.60;99.90;;;;;;6200844;23;20377;-77
2024/04/06 02:45:03;;;;;;;4.07;2.03;;;13.60;99.90;;;;;;6174123;23;20405;-75
2024/04/06 02:47:29;;;;;;;3.73;1.80;;;13.60;99.90;;;;;;6197761;23;20484;-75
2024/04/06 02:49:56;;;;;;;4.40;1.90;;;13.60;99.90;;;;;;6198132;23;20373;-75
2024/04/06 02:52:23;;;;;;;3.00;1.60;;;13.60;99.90;;;;;;6172433;23;20394;-74
2024/04/06 02:54:49;;;;;;;3.57;2.47;;;13.60;99.90;;;;;;6196429;23;20385;-75
2024/04/06 02:57:15;;;;;;;3.40;2.70;;;13.60;99.90;;;;;;6196842;23;20830;-76
2024/04/06 02:59:41;;;;;;;2.20;1.87;;;13.60;99.90;;;;;;6196634;23;20432;-73
2024/04/06 03:02:10;;;;;;;2.80;1.53;;;13.60;99.90;;;;;;6196490;23;20362;-76
2024/04/06 03:04:36;;;;;;;4.87;1.90;;;13.60;99.90;;;;;;6146873;23;20139;-75
2024/04/06 03:07:02;;;;;;;3.27;2.00;;;13.60;99.90;;;;;;6172121;23;20441;-75
2024/04/06 03:09:29;;;;;;;2.83;1.50;;;13.60;99.90;;;;;;6195382;23;20378;-74
2024/04/06 03:11:55;;;;;;;2.90;1.70;;;13.60;99.90;;;;;;6194439;23;20226;-74
2024/04/06 03:14:21;;;;;;;4.67;1.60;;;13.50;99.90;;;;;;6197595;23;20365;-76
2024/04/06 03:16:46;;;;;;;3.23;1.67;;;13.50;99.90;;;;;;6196588;23;20394;-75
2024/04/06 03:19:12;;;;;;;3.00;2.23;;;13.50;99.90;;;;;;6168760;23;20151;-74
2024/04/06 03:21:37;;;;;;;4.03;2.00;;;13.40;99.90;;;;;;6193251;23;20158;-74
2024/04/06 03:24:03;;;;;;;6.10;2.10;;;13.40;99.90;;;;;;6168949;23;20200;-75
2024/04/06 03:26:29;;;;;;;5.07;2.27;;;13.40;99.90;;;;;;6192915;23;20182;-75
2024/04/06 03:28:54;;;;;;;3.53;2.23;;;13.40;99.90;;;;;;6170632;23;20135;-76
2024/04/06 03:31:20;;;;;;;4.03;1.93;;;13.40;99.90;;;;;;6194305;23;20189;-76
2024/04/06 03:33:45;;;;;;;5.43;2.27;;;13.30;99.90;;;;;;6194880;23;20205;-77
2024/04/06 03:36:11;;;;;;;4.53;1.90;;;13.30;99.90;;;;;;6193069;23;20174;-75
2024/04/06 03:38:37;;;;;;;4.50;1.50;;;13.30;99.90;;;;;;6195110;23;20373;-75
2024/04/06 03:41:02;;;;;;;3.70;1.80;;;13.30;99.90;;;;;;6195847;23;20166;-75
2024/04/06 03:43:28;;;;;;;3.77;1.90;;;13.30;99.90;;;;;;6196010;23;20404;-74
2024/04/06 03:45:54;;;;;;;4.00;2.13;;;13.20;99.90;;;;;;6196662;23;20166;-75
2024/04/06 03:48:21;;;;;;;4.30;2.17;;;13.20;99.90;;;;;;6194895;23;20210;-74
2024/04/06 03:50:47;;;;;;;4.90;2.57;;;13.20;99.90;;;;;;6170036;23;20358;-76
2024/04/06 03:53:15;;;;;;;3.17;1.90;;;13.20;99.90;;;;;;6167918;23;20452;-75
2024/04/06 03:55:41;;;;;;;2.83;1.63;;;13.20;99.90;;;;;;6196624;23;20458;-76
2024/04/06 03:58:07;;;;;;;2.87;1.80;;;13.20;99.90;;;;;;6195875;23;20453;-75
2024/04/06 04:00:32;;;;;;;3.10;1.70;;;13.10;99.90;;;;;;6194791;23;20366;-74
2024/04/06 04:02:58;;;;;;;3.10;1.40;;;13.10;99.90;;;;;;6196322;23;20390;-73
2024/04/06 04:05:24;;;;;;;4.73;1.80;;;13.00;99.90;;;;;;6196345;23;20179;-75
2024/04/06 04:07:49;;;;;;;5.73;1.87;;;13.00;99.90;;;;;;6199069;23;20166;-74
2024/04/06 04:10:15;;;;;;;2.27;1.50;;;13.00;99.90;;;;;;6195609;23;20151;-75
2024/04/06 04:12:41;;;;;;;2.67;1.90;;;12.90;99.90;;;;;;6197353;23;20161;-77
2024/04/06 04:15:07;;;;;;;4.20;1.93;;;12.90;99.90;;;;;;6198132;23;20181;-74
2024/04/06 04:17:33;;;;;;;4.53;1.80;;;12.80;99.90;;;;;;6196687;23;20166;-75
2024/04/06 04:20:00;;;;;;;2.23;1.70;;;12.80;99.90;;;;;;6196727;23;20380;-74
2024/04/06 04:22:26;;;;;;;3.10;1.83;;;12.80;99.90;;;;;;6172820;23;20389;-73
2024/04/06 04:24:52;;;;;;;4.40;2.23;;;12.70;99.90;;;;;;6197802;23;20373;-74
2024/04/06 04:27:18;;;;;;;2.73;1.93;;;12.70;99.90;;;;;;6197795;23;20175;-75
2024/04/06 04:29:44;;;;;;;3.37;1.70;;;12.70;99.90;;;;;;6195803;23;20170;-75
2024/04/06 04:32:10;;;;;;;2.50;1.97;;;12.60;99.90;;;;;;6195402;23;20366;-75
2024/04/06 04:34:36;;;;;;;6.30;2.53;;;12.60;99.90;;;;;;6194094;23;20401;-74
2024/04/06 04:37:03;;;;;;;3.20;1.97;;;12.60;99.90;;;;;;6193319;23;20408;-74
2024/04/06 04:39:30;;;;;;;2.50;1.63;;;12.50;99.90;;;;;;6194702;23;20147;-75
2024/04/06 04:41:56;;;;;;;1.90;1.40;;;12.50;99.90;;;;;;6194582;23;20467;-76
2024/04/06 04:44:22;;;;;;;3.90;1.67;;;12.40;99.90;;;;;;6194408;23;20146;-74
2024/04/06 04:46:47;;;;;;;3.40;1.60;;;12.40;99.90;;;;;;6199097;23;20182;-76
2024/04/06 04:49:13;;;;;;;6.43;2.37;;;12.40;99.90;;;;;;6196313;23;20158;-74
2024/04/06 04:51:39;;;;;;;4.00;2.00;;;12.40;99.90;;;;;;6196608;23;20146;-74
2024/04/06 04:54:05;;;;;;;8.10;2.93;;;12.40;99.90;;;;;;6197413;23;20488;-75
2024/04/06 04:56:31;;;;;;;5.70;2.30;;;12.50;99.90;;;;;;6172303;23;20198;-76
2024/04/06 04:58:56;;;;;;;4.17;2.43;;;12.50;99.90;;;;;;6177009;23;20370;-75
2024/04/06 05:01:22;;;;;;;4.07;1.70;;;12.60;99.90;;;;;;6200558;23;20223;-74
2024/04/06 05:03:47;;;;;;;3.30;2.17;;;12.70;99.90;;;;;;6198124;23;20162;-74
2024/04/06 05:06:14;;;;;;;2.70;1.90;;;12.70;99.90;;;;;;6206972;23;20213;-77
2024/04/06 05:08:39;;;;;;;3.43;2.10;;;12.70;99.90;;;;;;6235495;23;20153;-74
2024/04/06 05:11:05;;;;;;;3.60;1.90;;;12.80;99.90;;;;;;6230985;23;20375;-75
2024/04/06 05:13:31;;;;;;;2.60;1.73;;;12.80;99.90;;;;;;6231997;23;20142;-75
2024/04/06 05:15:58;;;;;;;4.07;2.43;;;12.80;99.90;;;;;;6209718;22;20414;-77
2024/04/06 05:18:23;;;;;;;3.53;2.07;;;12.80;99.90;;;;;;6268804;22;20207;-76
2024/04/06 05:20:54;;;;;;;2.73;1.73;;;12.80;99.90;;;;;;6243301;22;20381;-74
2024/04/06 05:23:20;;;;;;;4.80;2.30;;;12.80;99.90;;;;;;6268865;22;20170;-75
2024/04/06 05:25:48;;;;;;;5.50;2.17;;;12.80;99.90;;;;;;6240912;22;20407;-76
2024/04/06 05:28:21;;;;;;;3.77;2.10;;;12.90;99.90;;;;;;6267117;22;20450;-76
2024/04/06 05:30:48;;;;;;;3.97;1.77;;;12.90;99.90;;;;;;6266258;22;20380;-75
2024/04/06 05:33:15;;;;;;;5.87;2.10;;;12.90;99.90;;;;;;6289529;22;20363;-75
2024/04/06 05:35:42;;;;;;;3.70;2.40;;;13.00;99.90;;;;;;6287497;22;20458;-77
2024/04/06 05:38:08;;;;;;;3.33;1.77;;;13.10;99.90;;;;;;6289384;22;20370;-75
2024/04/06 05:40:44;;;;;;;3.57;2.30;;;13.20;99.90;;;;;;6290274;22;20367;-75
2024/04/06 05:43:11;;;;;;;2.60;2.03;;;13.40;99.90;;;;;;6225712;23;20360;-76
2024/04/06 05:45:38;;;;;;;5.97;2.20;;;13.50;99.90;;;;;;6226837;23;20412;-76
2024/04/06 05:48:06;;;;;;;6.70;2.30;;;13.70;99.90;;;;;;6201383;23;20393;-76
2024/04/06 05:50:36;;;;;;;4.73;2.90;;;13.80;99.90;;;;;;6183351;23;20362;-76
2024/04/06 05:53:04;;;;;;;6.67;4.63;;;13.90;99.90;;;;;;6184967;23;20389;-78
2024/04/06 05:55:30;;;;;;;3.67;2.80;;;14.00;99.90;;;;;;6230354;23;20357;-76
2024/04/06 05:57:57;;;;;;;5.27;2.83;;;14.10;99.90;;;;;;6200757;23;20389;-75
2024/04/06 06:00:26;;;;;;;4.00;2.50;;;14.10;99.90;;;;;;6200248;23;20385;-74
2024/04/06 06:02:55;;;;;;;4.20;2.90;;;14.10;99.90;;;;;;6201872;23;20388;-76
2024/04/06 06:05:22;;;;;;;6.80;3.77;;;14.10;99.90;;;;;;6200859;23;20366;-77
2024/04/06 06:07:49;;;;;;;5.57;2.70;;;14.20;99.90;;;;;;6228983;23;20475;-75
2024/04/06 06:10:18;;;;;;;5.77;2.50;;;14.20;99.90;;;;;;6226149;23;20367;-76
2024/04/06 06:12:44;;;;;;;2.97;2.00;;;14.20;99.90;;;;;;6200570;23;20365;-77
2024/04/06 06:15:10;;;;;;;4.07;2.07;;;14.20;99.90;;;;;;6259193;22;20383;-74
2024/04/06 06:17:36;;;;;;;3.10;2.20;;;14.20;99.90;;;;;;6291170;22;20649;-76
2024/04/06 06:20:05;;;;;;;4.33;2.43;;;14.30;99.90;;;;;;6288881;22;20402;-75
2024/04/06 06:22:31;;;;;;;2.80;1.80;;;14.30;99.90;;;;;;6290438;22;20148;-75
2024/04/06 06:24:57;;;;;;;6.53;2.23;;;14.40;99.90;;;;;;6264736;22;20364;-76
2024/04/06 06:27:23;;;;;;;3.97;2.60;;;14.50;99.90;;;;;;6289435;22;20176;-76
2024/04/06 06:29:49;;;;;;;4.33;1.90;;;14.60;99.90;;;;;;6262480;22;20846;-76
2024/04/06 06:32:15;;;;;;;4.10;1.63;;;14.60;99.90;;;;;;6259660;22;20136;-74
2024/04/06 06:34:40;;;;;;;2.70;2.00;;;14.70;99.90;;;;;;6258932;22;20148;-75
2024/04/06 06:37:06;;;;;;;4.93;2.53;;;14.80;99.90;;;;;;6285780;22;20179;-74
2024/04/06 06:39:32;;;;;;;4.37;2.00;;;14.90;99.90;;;;;;6288421;22;20141;-75
2024/04/06 06:41:57;;;;;;;5.00;2.37;;;14.90;99.90;;;;;;6289107;22;20210;-75
2024/04/06 06:44:23;;;;;;;3.50;2.20;;;14.90;99.90;;;;;;6288666;22;20147;-75
2024/04/06 06:46:48;;;;;;;4.13;1.80;;;14.90;99.90;;;;;;6261239;22;20188;-75
2024/04/06 06:49:14;;;;;;;4.93;2.20;;;14.90;99.90;;;;;;6261341;22;20142;-75
2024/04/06 06:51:40;;;;;;;2.70;1.73;;;15.00;99.90;;;;;;6261184;22;20367;-76
2024/04/06 06:54:06;;;;;;;3.80;2.30;;;15.00;99.90;;;;;;6260237;22;20562;-75
2024/04/06 06:56:32;;;;;;;4.17;2.33;;;15.10;99.90;;;;;;6264172;22;20176;-76
2024/04/06 06:58:58;;;;;;;3.80;2.27;;;15.10;99.90;;;;;;6291685;22;20371;-77
2024/04/06 07:01:24;;;;;;;3.30;2.40;;;15.20;99.90;;;;;;6239511;22;20636;-77
2024/04/06 07:03:51;;;;;;;3.70;2.23;;;15.30;99.90;;;;;;6261541;22;20367;-77
2024/04/06 07:06:17;;;;;;;3.40;2.03;;;15.30;99.90;;;;;;6260266;22;20431;-75
2024/04/06 07:08:43;;;;;;;3.93;2.43;;;15.40;99.90;;;;;;6289067;22;20501;-76
2024/04/06 07:11:10;;;;;;;4.00;1.80;;;15.40;99.90;;;;;;6291657;22;20140;-76
2024/04/06 07:13:36;;;;;;;4.37;2.10;;;15.50;99.90;;;;;;6267928;22;20624;-76
2024/04/06 07:16:06;;;;;;;5.60;2.00;;;15.50;99.90;;;;;;6267611;22;20403;-77
2024/04/06 07:18:33;;;;;;;4.50;2.23;;;15.60;99.90;;;;;;6293888;22;20371;-76
2024/04/06 07:20:59;;;;;;;4.03;1.70;;;15.70;99.90;;;;;;6267950;22;20380;-79
2024/04/06 07:23:25;;;;;;;3.43;1.90;;;15.80;99.90;;;;;;6242709;22;20444;-76
2024/04/06 07:25:51;;;;;;;3.73;1.80;;;15.90;99.90;;;;;;6267248;22;20411;-78
2024/04/06 07:28:17;;;;;;;3.50;1.70;;;16.00;99.90;;;;;;6266967;22;20130;-76
2024/04/06 07:30:44;;;;;;;4.03;1.83;;;16.10;99.90;;;;;;6219005;22;20389;-79
2024/04/06 07:33:11;;;;;;;2.73;1.80;;;16.20;99.90;;;;;;6245060;22;20175;-77
2024/04/06 07:35:38;;;;;;;3.03;1.73;;;16.20;99.90;;;;;;6297048;22;20786;-76
2024/04/06 07:38:05;;;;;;;4.63;2.20;;;16.30;99.90;;;;;;6268708;22;20395;-77
2024/04/06 07:40:31;;;;;;;2.00;1.43;;;16.40;99.90;;;;;;6268709;22;20511;-76
2024/04/06 07:42:58;;;;;;;3.27;1.80;;;16.50;99.90;;;;;;6269237;22;20765;-77
2024/04/06 07:45:24;;;;;;;3.97;1.67;;;16.60;99.90;;;;;;6298869;22;20449;-77
2024/04/06 07:47:50;;;;;;;2.80;1.90;;;16.70;99.90;;;;;;6269877;22;20390;-76
2024/04/06 07:50:16;;;;;;;2.57;1.90;;;16.80;99.90;;;;;;6294320;22;20148;-76
2024/04/06 07:52:42;;;;;;;4.43;1.80;;;16.90;99.90;;;;;;6271373;22;20396;-77
2024/04/06 07:55:09;;;;;;;5.83;2.40;;;16.90;99.90;;;;;;6244816;22;20212;-76
2024/04/06 07:57:36;;;;;;;4.97;2.50;;;17.00;99.90;;;;;;6268844;22;20193;-77
2024/04/06 08:00:03;;;;;;;3.43;2.60;;;17.10;99.90;;;;;;6296421;22;20367;-77
2024/04/06 08:02:30;;;;;;;4.40;1.90;;;17.20;99.90;;;;;;6269952;22;20815;-77
2024/04/06 08:04:59;;;;;;;6.47;1.93;;;17.30;99.90;;;;;;6243733;22;20371;-76
2024/04/06 08:07:25;;;;;;;5.10;1.83;;;17.40;99.90;;;;;;6242614;22;20441;-76
2024/04/06 08:09:59;;;;;;;3.80;2.27;;;17.50;99.90;;;;;;6243447;22;20154;-76
2024/04/06 08:12:26;;;;;;;4.37;1.93;;;17.60;99.90;;;;;;6293778;22;20402;-76
2024/04/06 08:14:52;;;;;;;3.37;1.70;;;17.70;99.90;;;;;;6266861;22;20364;-77
2024/04/06 08:17:18;;;;;;;4.70;2.50;;;17.90;99.90;;;;;;6268550;22;20593;-78
2024/04/06 08:19:43;;;;;;;5.43;2.73;;;18.00;99.90;;;;;;6296058;22;20163;-76
2024/04/06 08:22:09;;;;;;;3.80;1.90;;;18.10;99.90;;;;;;6294891;22;20132;-76
2024/04/06 08:24:35;;;;;;;2.20;1.40;;;18.20;99.90;;;;;;6270156;22;20173;-78
2024/04/06 08:27:02;;;;;;;3.50;1.90;;;18.30;99.90;;;;;;6246234;22;20430;-79
2024/04/06 08:29:28;;;;;;;2.70;1.43;;;18.40;99.90;;;;;;6269640;22;20363;-77
2024/04/06 08:31:54;;;;;;;2.40;1.70;;;18.60;99.50;;;;;;6295811;22;20371;-80
2024/04/06 08:34:20;;;;;;;1.93;1.30;;;18.70;96.50;;;;;;6270939;22;20379;-77
2024/04/06 08:36:46;;;;;;;3.30;1.53;;;18.80;95.50;;;;;;6247595;22;20183;-77
2024/04/06 08:39:11;;;;;;;1.83;1.27;;;19.00;91.60;;;;;;6246275;22;20148;-79
2024/04/06 08:41:40;;;;;;;2.80;1.50;;;19.10;90.70;;;;;;6211647;23;20231;-77
2024/04/06 08:44:10;;;;;;;2.80;2.00;;;19.20;89.10;;;;;;6236264;23;20184;-79
2024/04/06 08:46:41;;;;;;;3.73;1.50;;;19.30;86.10;;;;;;6235726;23;20885;-79
2024/04/06 08:49:12;;;;;;;3.10;1.70;;;19.30;81.00;;;;;;6229987;23;20381;-76
2024/04/06 08:51:40;;;;;;;1.97;1.43;;;19.40;80.10;;;;;;6233527;23;20377;-79
2024/04/06 08:54:06;;;;;;;4.30;1.67;;;19.40;77.10;;;;;;6212022;23;20373;-77
2024/04/06 08:56:32;;;;;;;3.37;1.50;;;19.40;76.10;;;;;;6238193;23;20403;-79
2024/04/06 08:59:01;;;;;;;2.17;1.50;;;19.50;75.20;;;;;;6213077;23;20134;-79
2024/04/06 09:01:27;;;;;;;2.90;1.60;;;19.60;74.00;;;;;;6238911;23;20435;-78
2024/04/06 09:03:53;;;;;;;1.70;1.10;;;19.70;73.70;;;;;;6164205;23;20439;-79
2024/04/06 09:06:19;;;;;;;3.13;1.40;;;19.80;72.00;;;;;;6233832;23;20655;-78
2024/04/06 09:08:46;;;;;;;1.90;1.47;;;20.00;71.20;;;;;;6211070;23;20165;-77
2024/04/06 09:11:13;;;;;;;2.60;1.10;;;20.00;68.50;;;;;;6214088;23;20437;-77
2024/04/06 09:13:40;;;;;;;2.80;1.40;;;20.20;69.40;;;;;;6296524;22;20394;-78
2024/04/06 09:16:08;;;;;;;3.60;1.20;;;20.30;69.10;;;;;;6273515;22;20402;-80
2024/04/06 09:18:34;;;;;;;1.87;1.40;;;20.40;68.60;;;;;;6300481;22;20379;-80
2024/04/06 09:20:59;;;;;;;2.50;1.63;;;20.50;65.90;;;;;;6247394;22;20375;-79
2024/04/06 09:23:25;;;;;;;4.30;1.40;;;20.50;65.60;;;;;;6245933;22;20378;-78
2024/04/06 09:26:03;;;;;;;4.40;2.03;;;20.60;64.40;;;;;;6274315;22;20176;-79
2024/04/06 09:28:30;;;;;;;3.57;1.70;;;20.80;64.40;;;;;;6247494;22;20187;-79
2024/04/06 09:31:06;;;;;;;2.73;1.30;;;20.90;63.30;;;;;;6301679;22;20391;-78
2024/04/06 09:33:34;;;;;;;2.50;1.20;;;20.90;61.20;;;;;;6276818;22;20355;-80
2024/04/06 09:36:04;;;;;;;1.67;1.20;;;21.00;59.90;;;;;;6250188;22;20360;-78
2024/04/06 09:38:31;;;;;;;2.90;1.30;;;21.10;59.90;;;;;;6277587;22;20451;-81
2024/04/06 09:40:58;;;;;;;2.37;1.63;;;21.20;59.00;;;;;;6275933;22;20440;-80
2024/04/06 09:43:25;;;;;;;1.53;1.10;;;21.40;57.90;;;;;;6276251;22;20402;-81
2024/04/06 09:46:31;;;;;;;2.60;1.50;;;21.50;57.80;;;;;;6270783;22;20423;-81
2024/04/06 09:49:04;;;;;;;3.20;1.63;;;21.60;58.70;;;;;;6248017;22;20368;-81
2024/04/06 09:51:30;;;;;;;2.40;1.50;;;21.80;59.20;;;;;;6222239;23;20368;-79
2024/04/06 09:53:57;;;;;;;3.27;2.27;;;21.80;59.60;;;;;;6220480;23;20348;-82
2024/04/06 09:56:24;;;;;;;3.60;1.60;;;21.90;59.60;;;;;;6218612;23;20177;-80
2024/04/06 09:58:54;;;;;;;5.67;1.80;;;21.90;59.40;;;;;;6221095;23;20654;-82
2024/04/06 10:01:20;;;;;;;1.60;1.20;;;22.00;59.40;;;;;;6171918;22;20356;-80
2024/04/06 10:03:49;;;;;;;2.00;1.60;;;22.20;59.40;;;;;;6270778;23;20398;-80
2024/04/06 10:06:28;;;;;;;3.10;1.67;;;22.30;58.70;;;;;;6270093;22;20436;-80
2024/04/06 10:09:20;;;;;;;4.17;2.20;;;22.50;58.40;;;;;;6244964;23;20388;-79
2024/04/06 10:11:58;;;;;;;5.57;2.27;;;22.60;57.90;;;;;;6208841;23;20491;-78
2024/04/06 10:14:26;;;;;;;1.97;1.70;;;22.70;58.10;;;;;;6209686;23;20413;-80
2024/04/06 10:17:07;;;;;;;5.97;1.80;;;22.80;57.90;;;;;;6226123;23;20432;-80
2024/04/06 10:19:38;;;;;;;3.27;1.57;;;22.90;58.10;;;;;;6168988;23;20853;-83
2024/04/06 10:22:06;;;;;;;2.97;1.80;;;23.00;58.10;;;;;;6189838;23;20380;-79
2024/04/06 10:24:39;;;;;;;2.37;1.63;;;23.00;58.40;;;;;;6215015;23;20373;-81
2024/04/06 10:27:14;;;;;;;1.90;1.50;;;23.00;58.80;;;;;;6164681;23;20425;-79
2024/04/06 10:29:47;;;;;;;2.60;1.63;;;23.10;58.40;;;;;;6239672;23;20365;-80
2024/04/06 10:32:13;;;;;;;4.90;1.43;;;23.20;58.70;;;;;;6189761;23;20380;-79
2024/04/06 10:34:47;;;;;;;3.70;1.90;;;23.40;58.20;;;;;;6216120;23;20412;-81
2024/04/06 10:37:27;;;;;;;2.63;1.80;;;23.40;58.30;;;;;;6218213;23;20381;-80
2024/04/06 10:40:06;;;;;;;3.90;1.93;;;23.50;57.60;;;;;;6240215;23;20391;-81
2024/04/06 10:42:33;;;;;;;2.07;1.70;;;23.40;56.40;;;;;;6168888;22;20387;-80
2024/04/06 10:45:11;;;;;;;3.50;1.87;;;23.30;56.60;;;;;;6184295;23;20412;-81
2024/04/06 10:47:41;;;;;;;4.77;1.53;;;23.00;57.10;;;;;;6160549;23;20418;-81
2024/04/06 10:50:09;;;;;;;3.67;1.83;;;22.80;57.50;;;;;;6185652;23;20394;-81
2024/04/06 10:52:59;;;;;;;3.47;1.70;;;22.90;57.50;;;;;;6161249;23;20404;-80
2024/04/06 10:55:28;;;;;;;2.23;1.50;;;22.90;57.80;;;;;;6186788;23;20374;-80
2024/04/06 10:57:58;;;;;;;4.23;1.73;;;22.90;58.00;;;;;;6186094;23;20541;-82
2024/04/06 11:00:26;;;;;;;3.10;1.80;;;22.90;57.90;;;;;;6136761;23;20467;-80
2024/04/06 11:03:08;;;;;;;3.20;1.67;;;23.10;58.20;;;;;;6188517;23;20338;-81
2024/04/06 11:05:35;;;;;;;2.73;1.57;;;23.20;57.80;;;;;;6160387;23;20402;-81
2024/04/06 11:08:22;;;;;;;2.00;1.40;;;23.50;57.60;;;;;;6160936;23;20440;-81
2024/04/06 11:10:48;;;;;;;1.70;1.20;;;23.70;53.90;;;;;;6161450;23;20358;-81
2024/04/06 11:13:16;;;;;;;2.10;1.40;;;23.90;53.10;;;;;;6136983;23;20381;-82
2024/04/06 11:15:43;;;;;;;2.50;1.37;;;24.20;52.10;;;;;;6224951;22;20359;-82
2024/04/06 11:18:11;;;;;;;2.60;1.87;;;24.40;51.70;;;;;;6188180;23;20438;-81
2024/04/06 11:21:10;;;;;;;2.53;2.10;;;24.70;50.50;;;;;;6121422;23;20465;-83
2024/04/06 11:23:38;;;;;;;3.37;1.40;;;25.10;49.00;;;;;;6120530;23;20376;-83
2024/04/06 11:26:06;;;;;;;3.60;2.03;;;25.20;46.00;;;;;;6122700;23;20518;-80
2024/04/06 11:28:55;;;;;;;3.60;2.30;;;25.40;44.80;;;;;;6097823;23;20381;-81
2024/04/06 11:31:47;;;;;;;5.10;2.57;;;25.40;45.90;;;;;;6121895;23;20407;-82
2024/04/06 11:34:17;;;;;;;4.60;1.77;;;25.60;45.30;;;;;;6121754;23;20376;-81
2024/04/06 11:36:44;;;;;;;2.87;1.87;;;25.70;45.50;;;;;;6121629;23;20468;-83
2024/04/06 11:39:32;;;;;;;2.70;1.83;;;25.80;45.90;;;;;;6099322;23;20408;-82
2024/04/06 11:42:05;;;;;;;3.83;1.70;;;25.70;46.50;;;;;;6098366;23;20380;-83
2024/04/06 11:45:08;;;;;;;2.57;1.40;;;25.70;46.30;;;;;;6122111;23;20396;-81
2024/04/06 11:48:00;;;;;;;2.73;1.53;;;25.70;46.70;;;;;;6069003;23;20433;-83
2024/04/06 11:50:29;;;;;;;2.70;1.80;;;25.60;46.30;;;;;;6073148;23;20381;-81
2024/04/06 11:52:57;;;;;;;2.03;1.57;;;25.50;46.90;;;;;;6056684;23;20376;-83
2024/04/06 11:55:38;;;;;;;2.03;1.20;;;25.40;47.20;;;;;;6151640;23;20392;-81
2024/04/06 11:58:08;;;;;;;3.77;1.73;;;25.40;46.60;;;;;;6128928;23;20510;-81
2024/04/06 12:00:35;;;;;;;2.60;1.40;;;25.30;46.40;;;;;;6105300;23;20414;-81
2024/04/06 12:03:04;;;;;;;1.70;1.30;;;25.20;46.30;;;;;;6104324;23;20415;-82
2024/04/06 12:05:35;;;;;;;3.10;1.23;;;25.20;45.50;;;;;;6152101;23;20163;-82
2024/04/06 12:08:08;;;;;;;2.50;1.30;;;25.20;45.80;;;;;;6128758;23;20430;-82
2024/04/06 12:10:38;;;;;;;1.60;1.10;;;25.20;45.70;;;;;;6080682;23;20388;-81
2024/04/06 12:13:06;;;;;;;2.37;1.10;;;25.10;45.60;;;;;;6104383;23;20375;-83
2024/04/06 12:18:42;;;;;;;4.43;1.60;;;25.10;45.70;;;;;;6158637;23;20499;-82
2024/04/06 12:21:08;;;;;;;3.43;1.50;;;25.10;46.10;;;;;;6129641;23;20379;-84
2024/04/06 12:23:35;;;;;;;1.53;1.13;;;25.30;45.80;;;;;;6153400;23;20391;-83
2024/04/06 12:26:07;;;;;;;2.13;1.47;;;25.40;45.10;;;;;;6128941;23;20419;-80
2024/04/06 12:28:57;;;;;;;2.17;1.60;;;25.60;44.80;;;;;;6154375;23;20364;-81
2024/04/06 12:31:36;;;;;;;1.33;1.03;;;25.80;43.30;;;;;;6154252;23;20407;-81
2024/04/06 12:34:37;;;;;;;2.73;1.30;;;26.00;43.20;;;;;;6080973;23;20393;-82
2024/04/06 12:42:53;;;;;;;2.83;1.73;;;26.10;42.00;;;;;;6122779;23;20710;-82
2024/04/06 12:45:21;;;;;;;1.97;1.37;;;26.00;42.50;;;;;;6148506;23;20376;-81
2024/04/06 12:48:03;;;;;;;1.80;1.30;;;26.00;42.20;;;;;;6124333;23;20408;-80
2024/04/06 12:51:14;;;;;;;2.67;1.50;;;26.00;42.20;;;;;;6148804;23;20389;-82
2024/04/06 12:53:45;;;;;;;2.10;1.50;;;25.90;42.00;;;;;;6124223;23;20388;-81
2024/04/06 13:01:57;;;;;;;2.77;1.70;;;26.10;41.50;;;;;;6183403;23;20407;-82
2024/04/06 13:04:24;;;;;;;3.23;2.00;;;26.10;41.10;;;;;;6132857;23;20466;-79
2024/04/06 13:10:04;;;;;;;1.80;1.10;;;26.20;40.60;;;;;;6265708;22;20423;-82
2024/04/06 13:13:11;;;;;;;1.67;1.10;;;26.30;40.50;;;;;;6133842;23;20398;-81